^^
Station Historical Data
Daily Summary for March 27, 2017 Units:  English    Metric   Both
« Previous Day
Next Day »
Daily Weekly Monthly Yearly Custom
  High: Low: Average:
Temperature: 47.8 °F 35.7 °F 40.6 °F
Dew Point: 46.2 °F 34.4 °F 39.4 °F
Humidity: 97% 91% 95%
Wind Speed: 3.0mph 0.0mph 0.2mph
Wind Gust: 7.0mph - -
Wind- - SSW
Pressure: 30.35 in 30.01 in -
Precipitation: 0.60 in    
Historical Graphs
 
 
Tabular Data for March 27, 2017
Time Temperature Dew Point Pressure Wind Wind Speed Wind Gust Humidity Rainfall Rate (Hourly) Conditions
00:00 35.8 °F 34.5 °F 30.35 in Calm   2.0 mph 95% 0.00 in -RA
00:15 35.8 °F 34.5 °F 30.34 in Calm   1.0 mph 95% 0.00 in -RA
00:30 35.8 °F 34.5 °F 30.33 in Calm   3.0 mph 95% 0.00 in -RA
00:45 35.7 °F 34.4 °F 30.32 in Calm   3.0 mph 95% 0.00 in -RA
01:00 35.7 °F 34.4 °F 30.31 in Calm   4.0 mph 95% 0.00 in -RA
02:15 35.7 °F 34.4 °F 30.28 in Calm   3.0 mph 95% 0.01 in -DZ
02:30 35.7 °F 34.7 °F 30.26 in NNW 1.0 mph 5.0 mph 96% 0.00 in -DZ
02:45 35.7 °F 34.7 °F 30.26 in Calm   4.0 mph 96% 0.00 in -DZ
03:00 35.7 °F 34.7 °F 30.25 in NNE 1.0 mph 4.0 mph 96% 0.00 in -DZ
03:15 35.8 °F 34.8 °F 30.24 in Calm   4.0 mph 96% 0.00 in -DZ
03:30 35.9 °F 34.9 °F 30.23 in Calm   6.0 mph 96% 0.00 in -DZ
03:45 35.9 °F 34.9 °F 30.22 in Calm   6.0 mph 96% 0.00 in -DZ
04:00 36.0 °F 34.9 °F 30.22 in Calm   2.0 mph 96% 0.00 in -DZ
04:15 36.0 °F 35.0 °F 30.21 in NE 3.0 mph 6.0 mph 96% 0.00 in -DZ
04:30 36.0 °F 35.0 °F 30.20 in Calm   7.0 mph 96% 0.01 in -DZ
04:45 36.1 °F 35.1 °F 30.21 in ENE 1.0 mph 4.0 mph 96% 0.00 in -DZ
05:00 36.1 °F 35.1 °F 30.20 in Calm   5.0 mph 96% 0.00 in -DZ
05:15 36.1 °F 35.1 °F 30.19 in NNW 1.0 mph 3.0 mph 96% 0.00 in -DZ
05:30 36.2 °F 35.2 °F 30.19 in Calm   6.0 mph 96% 0.00 in -DZ
05:45 36.1 °F 35.1 °F 30.18 in NE 1.0 mph 6.0 mph 96% 0.00 in -DZ
06:00 36.2 °F 35.2 °F 30.18 in Calm   5.0 mph 96% 0.00 in -DZ
06:15 36.3 °F 35.3 °F 30.18 in Calm   3.0 mph 96% 0.00 in -DZ
06:30 36.4 °F 35.3 °F 30.17 in Calm   4.0 mph 96% 0.00 in -DZ
06:45 36.4 °F 35.4 °F 30.16 in Calm   3.0 mph 96% 0.01 in -DZ
07:00 36.5 °F 35.5 °F 30.16 in NNW 1.0 mph 6.0 mph 96% 0.01 in -DZ
07:15 36.5 °F 35.5 °F 30.15 in NNW 1.0 mph 4.0 mph 96% 0.01 in -RA
07:30 36.6 °F 35.6 °F 30.15 in Calm   5.0 mph 96% 0.01 in -RA
07:45 36.8 °F 36.0 °F 30.14 in NW 1.0 mph 4.0 mph 97% 0.04 in -RA
08:00 36.9 °F 36.1 °F 30.13 in Calm   5.0 mph 97% 0.04 in -RA
08:15 37.1 °F 36.3 °F 30.13 in NNE 1.0 mph 5.0 mph 97% 0.02 in RA
08:30 37.3 °F 36.5 °F 30.13 in Calm   4.0 mph 97% 0.00 in
08:45 37.5 °F 36.7 °F 30.13 in Calm   2.0 mph 97% 0.06 in RA
09:00 37.6 °F 36.8 °F 30.14 in Calm   2.0 mph 97% 0.17 in RA
09:15 37.8 °F 37.0 °F 30.14 in Calm   1.0 mph 97% 0.11 in RA
09:30 38.1 °F 37.3 °F 30.13 in Calm     97% 0.04 in RA
09:45 38.5 °F 37.7 °F 30.13 in Calm     97% 0.02 in RA
10:00 38.6 °F 37.8 °F 30.13 in Calm   1.0 mph 97% 0.02 in RA
10:15 39.1 °F 38.3 °F 30.12 in Calm   1.0 mph 97% 0.01 in RA
10:30 39.2 °F 38.4 °F 30.12 in Calm   1.0 mph 97% 0.00 in OVC
10:45 38.7 °F 37.7 °F 30.12 in WNW 1.0 mph 2.0 mph 96% 0.00 in OVC
11:00 38.9 °F 38.2 °F 30.11 in Calm   1.0 mph 97% 0.01 in OVC
11:15 39.4 °F 38.6 °F 30.10 in Calm   1.0 mph 97% 0.00 in OVC
11:30 40.0 °F 39.2 °F 30.09 in Calm   2.0 mph 97% 0.00 in OVC
11:45 39.7 °F 38.7 °F 30.09 in WNW 1.0 mph 3.0 mph 96% 0.00 in OVC
12:00 39.4 °F 38.4 °F 30.08 in WSW 1.0 mph 3.0 mph 96% 0.00 in OVC
12:15 39.8 °F 39.0 °F 30.08 in Calm   2.0 mph 97% 0.00 in OVC
12:30 39.7 °F 38.7 °F 30.08 in Calm   2.0 mph 96% 0.00 in OVC
12:45 40.3 °F 39.5 °F 30.08 in West 1.0 mph 3.0 mph 97% 0.00 in OVC
13:00 40.4 °F 39.3 °F 30.08 in Calm   3.0 mph 96% 0.00 in OVC
13:15 40.5 °F 39.4 °F 30.07 in Calm   3.0 mph 96% 0.00 in -DZ
13:30 41.2 °F 40.1 °F 30.06 in Calm   2.0 mph 96% 0.00 in -DZ
13:45 43.1 °F 42.3 °F 30.06 in NW 1.0 mph 3.0 mph 97% 0.00 in -DZ
14:00 43.2 °F 42.2 °F 30.07 in WSW 2.0 mph 5.0 mph 96% 0.00 in -DZ
14:15 42.1 °F 40.8 °F 30.06 in Calm   5.0 mph 95% 0.00 in OVC
14:30 42.3 °F 40.9 °F 30.07 in Calm   1.0 mph 95% 0.00 in OVC
14:45 42.5 °F 41.4 °F 30.06 in Calm   1.0 mph 96% 0.00 in OVC
15:00 43.2 °F 42.1 °F 30.05 in Calm   2.0 mph 96% 0.00 in OVC
15:15 43.7 °F 42.6 °F 30.05 in NNE 1.0 mph 1.0 mph 96% 0.00 in OVC
15:30 44.0 °F 42.9 °F 30.04 in Calm   2.0 mph 96% 0.00 in OVC
15:45 44.3 °F 43.2 °F 30.04 in Calm   1.0 mph 96% 0.00 in OVC
16:00 44.7 °F 43.6 °F 30.02 in Calm   1.0 mph 96% 0.00 in OVC
16:15 44.9 °F 43.6 °F 30.03 in Calm   1.0 mph 95% 0.00 in OVC
16:30 45.7 °F 44.4 °F 30.02 in Calm   3.0 mph 95% 0.00 in OVC
16:45 46.7 °F 45.0 °F 30.02 in Calm   1.0 mph 94% 0.00 in OVC
17:00 47.8 °F 46.2 °F 30.02 in Calm   1.0 mph 94% 0.00 in OVC
17:15 47.6 °F 45.1 °F 30.01 in Calm   3.0 mph 91% 0.00 in BKN
17:30 47.5 °F 45.0 °F 30.01 in Calm   2.0 mph 91% 0.00 in BKN
17:45 46.9 °F 44.4 °F 30.01 in Calm   2.0 mph 91% 0.00 in BKN
18:00 46.7 °F 44.2 °F 30.01 in Calm   1.0 mph 91% 0.00 in BKN
18:15 47.3 °F 44.8 °F 30.01 in Calm   1.0 mph 91% 0.00 in BKN
18:30 47.3 °F 44.8 °F 30.01 in Calm   1.0 mph 91% 0.00 in BKN
18:45 47.4 °F 45.2 °F 30.01 in Calm     92% 0.00 in BKN
19:00 47.2 °F 45.0 °F 30.01 in Calm     92% 0.00 in BKN
19:15 47.2 °F 45.0 °F 30.01 in Calm     92% 0.00 in BKN
19:30 46.8 °F 44.6 °F 30.01 in Calm   1.0 mph 92% 0.00 in BKN
19:45 46.2 °F 44.3 °F 30.02 in Calm   1.0 mph 93% 0.00 in BKN
20:00 45.7 °F 44.1 °F 30.02 in Calm     94% 0.00 in BKN
20:15 45.1 °F 43.2 °F 30.02 in Calm     93% 0.00 in FEW
20:30 44.9 °F 43.2 °F 30.02 in Calm     94% 0.00 in FEW
20:45 44.0 °F 42.4 °F 30.03 in Calm   1.0 mph 94% 0.00 in FEW
21:00 43.7 °F 42.3 °F 30.03 in Calm     95% 0.00 in FEW
21:15 42.7 °F 41.4 °F 30.03 in Calm     95% 0.00 in BKN
21:30 42.3 °F 41.0 °F 30.03 in Calm     95% 0.00 in BKN
21:45 42.4 °F 41.1 °F 30.03 in Calm     95% 0.00 in BKN
22:00 41.8 °F 40.4 °F 30.04 in Calm     95% 0.00 in BKN
22:15 43.0 °F 42.2 °F 30.03 in Calm     97% 0.00 in SCT
22:30 42.2 °F 40.9 °F 30.03 in Calm     95% 0.00 in SCT
22:45 43.3 °F 42.5 °F 30.03 in Calm   1.0 mph 97% 0.00 in SCT
23:00 43.2 °F 42.1 °F 30.03 in Calm   1.0 mph 96% 0.00 in SCT
23:15 42.9 °F 41.8 °F 30.03 in Calm     96% 0.00 in CLR
23:30 44.0 °F 43.2 °F 30.03 in Calm   1.0 mph 97% 0.00 in CLR
23:45 43.3 °F 42.2 °F 30.03 in Calm   1.0 mph 96% 0.00 in CLR
TarryTown NY Weather
Compliments of Weather Underground - 1.5 mb